sensor_id;sensor_type;location;lat;lon;timestamp;pressure;altitude;pressure_sealevel;temperature;humidity
38716;BME280;24833;49.324;8.694;2022-12-31T00:00:20;99514.81;;;12.88;100.00
38716;BME280;24833;49.324;8.694;2022-12-31T00:02:47;99514.59;;;12.89;100.00
38716;BME280;24833;49.324;8.694;2022-12-31T00:05:14;99518.09;;;12.90;100.00
38716;BME280;24833;49.324;8.694;2022-12-31T00:07:41;99520.16;;;12.88;100.00
38716;BME280;24833;49.324;8.694;2022-12-31T00:10:07;99515.84;;;12.87;100.00
38716;BME280;24833;49.324;8.694;2022-12-31T00:12:34;99512.34;;;12.86;100.00
38716;BME280;24833;49.324;8.694;2022-12-31T00:15:02;99507.22;;;12.85;100.00
38716;BME280;24833;49.324;8.694;2022-12-31T00:17:29;99516.72;;;12.80;100.00
38716;BME280;24833;49.324;8.694;2022-12-31T00:19:56;99504.34;;;12.79;100.00
38716;BME280;24833;49.324;8.694;2022-12-31T00:22:23;99503.97;;;12.76;100.00
38716;BME280;24833;49.324;8.694;2022-12-31T00:24:50;99508.94;;;12.72;100.00
38716;BME280;24833;49.324;8.694;2022-12-31T00:27:17;99514.72;;;12.69;100.00
38716;BME280;24833;49.324;8.694;2022-12-31T00:29:44;99506.69;;;12.69;100.00
38716;BME280;24833;49.324;8.694;2022-12-31T00:32:11;99511.44;;;12.67;100.00
38716;BME280;24833;49.324;8.694;2022-12-31T00:34:38;99509.81;;;12.66;100.00
38716;BME280;24833;49.324;8.694;2022-12-31T00:37:05;99502.19;;;12.63;100.00
38716;BME280;24833;49.324;8.694;2022-12-31T00:39:32;99503.22;;;12.62;100.00
38716;BME280;24833;49.324;8.694;2022-12-31T00:41:59;99510.66;;;12.60;100.00
38716;BME280;24833;49.324;8.694;2022-12-31T00:44:26;99517.06;;;12.59;100.00
38716;BME280;24833;49.324;8.694;2022-12-31T00:46:53;99509.84;;;12.60;100.00
38716;BME280;24833;49.324;8.694;2022-12-31T00:49:20;99518.09;;;12.58;100.00
38716;BME280;24833;49.324;8.694;2022-12-31T00:51:47;99519.09;;;12.57;100.00
38716;BME280;24833;49.324;8.694;2022-12-31T00:54:14;99525.50;;;12.56;100.00
38716;BME280;24833;49.324;8.694;2022-12-31T00:56:41;99514.19;;;12.54;100.00
38716;BME280;24833;49.324;8.694;2022-12-31T00:59:08;99525.50;;;12.56;100.00
38716;BME280;24833;49.324;8.694;2022-12-31T01:01:38;99533.75;;;12.54;100.00
38716;BME280;24833;49.324;8.694;2022-12-31T01:04:10;99537.25;;;12.55;100.00
38716;BME280;24833;49.324;8.694;2022-12-31T01:06:38;99544.47;;;12.54;100.00
38716;BME280;24833;49.324;8.694;2022-12-31T01:09:06;99545.31;;;12.55;100.00
38716;BME280;24833;49.324;8.694;2022-12-31T01:11:34;99547.97;;;12.55;100.00
38716;BME280;24833;49.324;8.694;2022-12-31T01:14:15;99553.13;;;12.57;100.00
38716;BME280;24833;49.324;8.694;2022-12-31T01:16:49;99551.88;;;12.59;100.00
38716;BME280;24833;49.324;8.694;2022-12-31T01:19:20;99553.53;;;12.60;100.00
38716;BME280;24833;49.324;8.694;2022-12-31T01:21:49;99553.06;;;12.63;100.00
38716;BME280;24833;49.324;8.694;2022-12-31T01:24:17;99558.03;;;12.66;100.00
38716;BME280;24833;49.324;8.694;2022-12-31T01:26:45;99558.63;;;12.68;100.00
38716;BME280;24833;49.324;8.694;2022-12-31T01:29:13;99558.41;;;12.70;100.00
38716;BME280;24833;49.324;8.694;2022-12-31T01:31:40;99560.88;;;12.71;100.00
38716;BME280;24833;49.324;8.694;2022-12-31T01:34:08;99562.09;;;12.75;100.00
38716;BME280;24833;49.324;8.694;2022-12-31T01:36:36;99547.66;;;12.76;100.00
38716;BME280;24833;49.324;8.694;2022-12-31T01:39:06;99565.41;;;12.77;100.00
38716;BME280;24833;49.324;8.694;2022-12-31T01:41:41;99564.34;;;12.78;100.00
38716;BME280;24833;49.324;8.694;2022-12-31T01:46:47;99575.66;;;12.80;100.00
38716;BME280;24833;49.324;8.694;2022-12-31T01:52:22;99583.72;;;12.80;100.00
38716;BME280;24833;49.324;8.694;2022-12-31T01:55:04;99574.84;;;12.80;100.00
38716;BME280;24833;49.324;8.694;2022-12-31T01:57:31;99590.69;;;12.81;100.00
38716;BME280;24833;49.324;8.694;2022-12-31T02:00:00;99589.06;;;12.80;100.00
38716;BME280;24833;49.324;8.694;2022-12-31T02:02:29;99588.03;;;12.81;100.00
38716;BME280;24833;49.324;8.694;2022-12-31T02:04:59;99589.66;;;12.82;100.00
38716;BME280;24833;49.324;8.694;2022-12-31T02:07:27;99593.38;;;12.81;100.00
38716;BME280;24833;49.324;8.694;2022-12-31T02:09:54;99592.56;;;12.81;100.00
38716;BME280;24833;49.324;8.694;2022-12-31T02:12:21;99593.38;;;12.81;100.00
38716;BME280;24833;49.324;8.694;2022-12-31T02:14:51;99604.09;;;12.81;100.00
38716;BME280;24833;49.324;8.694;2022-12-31T02:26:18;99590.69;;;12.81;99.72
38716;BME280;24833;49.324;8.694;2022-12-31T02:29:36;99588.03;;;12.81;99.87
38716;BME280;24833;49.324;8.694;2022-12-31T02:32:22;99597.09;;;12.80;99.68
38716;BME280;24833;49.324;8.694;2022-12-31T02:34:56;99600.81;;;12.79;99.72
38716;BME280;24833;49.324;8.694;2022-12-31T02:37:26;99607.00;;;12.80;99.64
38716;BME280;24833;49.324;8.694;2022-12-31T02:39:54;99599.19;;;12.78;99.68
38716;BME280;24833;49.324;8.694;2022-12-31T02:42:22;99604.09;;;12.81;99.24
38716;BME280;24833;49.324;8.694;2022-12-31T02:44:49;99606.56;;;12.83;99.34
38716;BME280;24833;49.324;8.694;2022-12-31T02:53:27;99616.84;;;12.93;99.44
38716;BME280;24833;49.324;8.694;2022-12-31T02:56:07;99604.63;;;12.97;99.50
38716;BME280;24833;49.324;8.694;2022-12-31T02:59:10;99606.91;;;13.00;99.48
38716;BME280;24833;49.324;8.694;2022-12-31T03:02:05;99613.47;;;13.04;99.72
38716;BME280;24833;49.324;8.694;2022-12-31T03:04:53;99626.44;;;13.07;99.37
38716;BME280;24833;49.324;8.694;2022-12-31T03:07:29;99612.59;;;13.10;99.47
38716;BME280;24833;49.324;8.694;2022-12-31T03:09:58;99616.72;;;13.13;99.56
38716;BME280;24833;49.324;8.694;2022-12-31T03:12:28;99620.81;;;13.15;99.24
38716;BME280;24833;49.324;8.694;2022-12-31T03:15:26;99617.72;;;13.18;99.20
38716;BME280;24833;49.324;8.694;2022-12-31T03:18:17;99618.34;;;13.20;99.27
38716;BME280;24833;49.324;8.694;2022-12-31T03:21:11;99614.63;;;13.21;99.24
38716;BME280;24833;49.324;8.694;2022-12-31T03:23:57;99627.81;;;13.23;99.26
38716;BME280;24833;49.324;8.694;2022-12-31T03:26:42;99630.28;;;13.24;99.36
38716;BME280;24833;49.324;8.694;2022-12-31T03:29:09;99627.38;;;13.26;99.18
38716;BME280;24833;49.324;8.694;2022-12-31T03:31:36;99628.22;;;13.26;99.15
38716;BME280;24833;49.324;8.694;2022-12-31T03:34:03;99617.03;;;13.29;98.83
38716;BME280;24833;49.324;8.694;2022-12-31T03:36:30;99624.03;;;13.30;98.80
38716;BME280;24833;49.324;8.694;2022-12-31T03:38:57;99623.03;;;13.31;99.02
38716;BME280;24833;49.324;8.694;2022-12-31T03:41:24;99630.03;;;13.32;98.93
38716;BME280;24833;49.324;8.694;2022-12-31T03:43:50;99613.94;;;13.32;98.61
38716;BME280;24833;49.324;8.694;2022-12-31T03:46:17;99613.72;;;13.34;98.38
38716;BME280;24833;49.324;8.694;2022-12-31T03:48:44;99605.44;;;13.35;98.64
38716;BME280;24833;49.324;8.694;2022-12-31T03:51:11;99613.25;;;13.37;98.98
38716;BME280;24833;49.324;8.694;2022-12-31T03:53:39;99609.34;;;13.40;98.91
38716;BME280;24833;49.324;8.694;2022-12-31T03:56:06;99601.88;;;13.42;98.43
38716;BME280;24833;49.324;8.694;2022-12-31T03:58:33;99591.16;;;13.42;98.67
38716;BME280;24833;49.324;8.694;2022-12-31T04:01:00;99606.03;;;13.44;98.88
38716;BME280;24833;49.324;8.694;2022-12-31T04:03:27;99613.63;;;13.47;98.75
38716;BME280;24833;49.324;8.694;2022-12-31T04:05:54;99618.16;;;13.47;98.18
38716;BME280;24833;49.324;8.694;2022-12-31T04:08:23;99604.53;;;13.48;98.34
38716;BME280;24833;49.324;8.694;2022-12-31T04:10:50;99606.97;;;13.50;98.30
38716;BME280;24833;49.324;8.694;2022-12-31T04:13:17;99603.28;;;13.51;98.07
38716;BME280;24833;49.324;8.694;2022-12-31T04:15:43;99611.94;;;13.53;98.30
38716;BME280;24833;49.324;8.694;2022-12-31T04:18:10;99620.78;;;13.53;98.45
38716;BME280;24833;49.324;8.694;2022-12-31T04:20:38;99615.19;;;13.55;97.98
38716;BME280;24833;49.324;8.694;2022-12-31T04:23:05;99615.78;;;13.57;97.67
38716;BME280;24833;49.324;8.694;2022-12-31T04:25:32;99624.25;;;13.60;98.00
38716;BME280;24833;49.324;8.694;2022-12-31T04:27:59;99620.50;;;13.61;97.81
38716;BME280;24833;49.324;8.694;2022-12-31T04:30:26;99614.72;;;13.65;97.57
38716;BME280;24833;49.324;8.694;2022-12-31T04:32:53;99623.97;;;13.69;97.64
38716;BME280;24833;49.324;8.694;2022-12-31T04:35:20;99627.03;;;13.72;97.64
38716;BME280;24833;49.324;8.694;2022-12-31T04:37:47;99614.22;;;13.74;97.86
38716;BME280;24833;49.324;8.694;2022-12-31T04:40:16;99628.63;;;13.80;97.13
38716;BME280;24833;49.324;8.694;2022-12-31T04:42:43;99625.72;;;13.81;97.47
38716;BME280;24833;49.324;8.694;2022-12-31T04:45:10;99637.66;;;13.85;97.42
38716;BME280;24833;49.324;8.694;2022-12-31T04:47:37;99653.31;;;13.88;97.10
38716;BME280;24833;49.324;8.694;2022-12-31T04:50:05;99636.78;;;13.92;97.42
38716;BME280;24833;49.324;8.694;2022-12-31T04:52:32;99648.13;;;13.94;97.07
38716;BME280;24833;49.324;8.694;2022-12-31T04:55:06;99643.34;;;13.96;96.65
38716;BME280;24833;49.324;8.694;2022-12-31T04:57:33;99656.34;;;13.99;96.97
38716;BME280;24833;49.324;8.694;2022-12-31T05:00:00;99650.75;;;14.00;97.38
38716;BME280;24833;49.324;8.694;2022-12-31T05:02:28;99649.69;;;14.01;96.75
38716;BME280;24833;49.324;8.694;2022-12-31T05:04:56;99649.47;;;14.03;96.83
38716;BME280;24833;49.324;8.694;2022-12-31T05:07:23;99643.06;;;14.04;96.38
38716;BME280;24833;49.324;8.694;2022-12-31T05:09:50;99637.25;;;14.07;97.05
38716;BME280;24833;49.324;8.694;2022-12-31T05:12:17;99647.75;;;14.08;96.90
38716;BME280;24833;49.324;8.694;2022-12-31T05:14:44;99653.13;;;14.08;96.26
38716;BME280;24833;49.324;8.694;2022-12-31T05:17:11;99660.16;;;14.09;96.41
38716;BME280;24833;49.324;8.694;2022-12-31T05:19:38;99676.66;;;14.13;97.01
38716;BME280;24833;49.324;8.694;2022-12-31T05:22:05;99679.94;;;14.15;96.59
38716;BME280;24833;49.324;8.694;2022-12-31T05:24:50;99671.88;;;14.15;96.53
38716;BME280;24833;49.324;8.694;2022-12-31T05:27:18;99685.88;;;14.17;96.41
38716;BME280;24833;49.324;8.694;2022-12-31T05:29:45;99684.88;;;14.18;96.77
38716;BME280;24833;49.324;8.694;2022-12-31T05:32:12;99683.81;;;14.19;96.37
38716;BME280;24833;49.324;8.694;2022-12-31T05:34:39;99678.44;;;14.19;96.50
38716;BME280;24833;49.324;8.694;2022-12-31T05:37:06;99677.41;;;14.20;96.60
38716;BME280;24833;49.324;8.694;2022-12-31T05:39:35;99693.28;;;14.22;96.29
38716;BME280;24833;49.324;8.694;2022-12-31T05:42:02;99674.72;;;14.20;96.32
38716;BME280;24833;49.324;8.694;2022-12-31T05:44:29;99676.34;;;14.21;96.34
38716;BME280;24833;49.324;8.694;2022-12-31T05:46:55;99688.97;;;14.21;96.03
38716;BME280;24833;49.324;8.694;2022-12-31T05:49:22;99685.81;;;14.24;95.95
38716;BME280;24833;49.324;8.694;2022-12-31T05:51:49;99696.38;;;14.25;96.12
38716;BME280;24833;49.324;8.694;2022-12-31T05:54:16;99703.38;;;14.26;95.88
38716;BME280;24833;49.324;8.694;2022-12-31T05:56:44;99712.63;;;14.30;96.00
38716;BME280;24833;49.324;8.694;2022-12-31T05:59:11;99715.31;;;14.30;95.66
38716;BME280;24833;49.324;8.694;2022-12-31T06:01:38;99702.50;;;14.32;95.98
38716;BME280;24833;49.324;8.694;2022-12-31T06:04:05;99698.78;;;14.33;95.91
38716;BME280;24833;49.324;8.694;2022-12-31T06:06:32;99700.41;;;14.34;95.52
38716;BME280;24833;49.324;8.694;2022-12-31T06:08:59;99697.50;;;14.36;95.67
38716;BME280;24833;49.324;8.694;2022-12-31T06:11:26;99709.88;;;14.37;95.82
38716;BME280;24833;49.324;8.694;2022-12-31T06:13:52;99715.06;;;14.38;96.23
38716;BME280;24833;49.324;8.694;2022-12-31T06:16:19;99723.69;;;14.40;96.20
38716;BME280;24833;49.324;8.694;2022-12-31T06:18:47;99723.94;;;14.39;95.89
38716;BME280;24833;49.324;8.694;2022-12-31T06:21:17;99719.38;;;14.39;95.75
38716;BME280;24833;49.324;8.694;2022-12-31T06:23:46;99728.47;;;14.38;95.86
38716;BME280;24833;49.324;8.694;2022-12-31T06:26:13;99714.00;;;14.39;96.17
38716;BME280;24833;49.324;8.694;2022-12-31T06:28:41;99735.25;;;14.41;95.74
38716;BME280;24833;49.324;8.694;2022-12-31T06:31:12;99721.84;;;14.41;96.23
38716;BME280;24833;49.324;8.694;2022-12-31T06:33:39;99727.44;;;14.39;95.61
38716;BME280;24833;49.324;8.694;2022-12-31T06:36:10;99730.13;;;14.39;95.73
38716;BME280;24833;49.324;8.694;2022-12-31T06:38:39;99732.59;;;14.41;95.72
38716;BME280;24833;49.324;8.694;2022-12-31T06:41:09;99729.06;;;14.40;95.88
38716;BME280;24833;49.324;8.694;2022-12-31T06:43:38;99725.56;;;14.40;95.91
38716;BME280;24833;49.324;8.694;2022-12-31T06:46:13;99730.13;;;14.39;95.52
38716;BME280;24833;49.324;8.694;2022-12-31T06:48:40;99735.91;;;14.36;95.88
38716;BME280;24833;49.324;8.694;2022-12-31T06:51:15;99727.88;;;14.36;95.76
38716;BME280;24833;49.324;8.694;2022-12-31T06:53:49;99731.22;;;14.32;95.30
38716;BME280;24833;49.324;8.694;2022-12-31T06:56:25;99721.50;;;14.31;95.43
38716;BME280;24833;49.324;8.694;2022-12-31T06:59:01;99714.50;;;14.30;95.40
38716;BME280;24833;49.324;8.694;2022-12-31T07:05:50;99721.38;;;14.26;95.51
38716;BME280;24833;49.324;8.694;2022-12-31T07:08:33;99732.13;;;14.26;96.32
38716;BME280;24833;49.324;8.694;2022-12-31T07:11:11;99730.66;;;14.23;95.36
38716;BME280;24833;49.324;8.694;2022-12-31T07:13:58;99716.66;;;14.21;95.65
38716;BME280;24833;49.324;8.694;2022-12-31T07:19:38;99740.41;;;14.17;95.44
38716;BME280;24833;49.324;8.694;2022-12-31T07:22:14;99739.84;;;14.15;95.70
38716;BME280;24833;49.324;8.694;2022-12-31T07:24:45;99743.34;;;14.16;95.41
38716;BME280;24833;49.324;8.694;2022-12-31T07:27:44;99748.72;;;14.16;95.58
38716;BME280;24833;49.324;8.694;2022-12-31T07:30:20;99747.28;;;14.13;95.30
38716;BME280;24833;49.324;8.694;2022-12-31T07:33:28;99749.16;;;14.13;95.70
38716;BME280;24833;49.324;8.694;2022-12-31T07:36:25;99748.53;;;14.11;95.33
38716;BME280;24833;49.324;8.694;2022-12-31T07:39:09;99751.84;;;14.13;95.60
38716;BME280;24833;49.324;8.694;2022-12-31T07:42:06;99752.06;;;14.11;95.63
38716;BME280;24833;49.324;8.694;2022-12-31T07:44:58;99763.00;;;14.10;95.39
38716;BME280;24833;49.324;8.694;2022-12-31T07:47:27;99763.81;;;14.10;95.25
38716;BME280;24833;49.324;8.694;2022-12-31T07:49:56;99764.06;;;14.09;95.42
38716;BME280;24833;49.324;8.694;2022-12-31T07:52:24;99765.69;;;14.10;95.71
38716;BME280;24833;49.324;8.694;2022-12-31T07:54:51;99775.84;;;14.08;95.22
38716;BME280;24833;49.324;8.694;2022-12-31T07:57:19;99781.44;;;14.06;95.18
38716;BME280;24833;49.324;8.694;2022-12-31T08:00:10;99790.31;;;14.07;95.41
38716;BME280;24833;49.324;8.694;2022-12-31T08:05:53;99781.22;;;14.08;95.52
38716;BME280;24833;49.324;8.694;2022-12-31T08:11:41;99780.38;;;14.07;95.20
38716;BME280;24833;49.324;8.694;2022-12-31T08:14:12;99785.75;;;14.07;95.48
38716;BME280;24833;49.324;8.694;2022-12-31T08:16:41;99796.28;;;14.09;95.65
38716;BME280;24833;49.324;8.694;2022-12-31T08:19:23;99797.91;;;14.10;95.39
38716;BME280;24833;49.324;8.694;2022-12-31T08:22:25;99801.44;;;14.10;95.40
38716;BME280;24833;49.324;8.694;2022-12-31T08:31:17;99807.56;;;14.17;95.03
38716;BME280;24833;49.324;8.694;2022-12-31T08:34:05;99800.13;;;14.20;95.14
38716;BME280;24833;49.324;8.694;2022-12-31T08:45:22;99802.94;;;14.31;94.99
38716;BME280;24833;49.324;8.694;2022-12-31T08:48:04;99798.75;;;14.35;94.77
38716;BME280;24833;49.324;8.694;2022-12-31T08:50:33;99805.34;;;14.39;95.26
38716;BME280;24833;49.324;8.694;2022-12-31T08:53:00;99803.25;;;14.41;94.83
38716;BME280;24833;49.324;8.694;2022-12-31T08:55:28;99804.47;;;14.45;94.94
38716;BME280;24833;49.324;8.694;2022-12-31T09:00:51;99799.91;;;14.53;94.38
38716;BME280;24833;49.324;8.694;2022-12-31T09:06:56;99813.03;;;14.61;94.49
38716;BME280;24833;49.324;8.694;2022-12-31T09:09:42;99825.84;;;14.65;94.58
38716;BME280;24833;49.324;8.694;2022-12-31T09:12:41;99827.00;;;14.69;94.73
38716;BME280;24833;49.324;8.694;2022-12-31T09:15:32;99831.97;;;14.73;94.16
38716;BME280;24833;49.324;8.694;2022-12-31T09:18:00;99839.34;;;14.77;94.66
38716;BME280;24833;49.324;8.694;2022-12-31T09:20:32;99832.72;;;14.80;94.63
38716;BME280;24833;49.324;8.694;2022-12-31T09:23:10;99826.06;;;14.82;93.97
38716;BME280;24833;49.324;8.694;2022-12-31T09:25:55;99839.09;;;14.85;93.86
38716;BME280;24833;49.324;8.694;2022-12-31T09:28:40;99835.94;;;14.88;93.86
38716;BME280;24833;49.324;8.694;2022-12-31T09:31:50;99830.13;;;14.91;93.58
38716;BME280;24833;49.324;8.694;2022-12-31T09:40:52;99854.41;;;15.03;93.81
38716;BME280;24833;49.324;8.694;2022-12-31T09:49:48;99846.06;;;15.11;92.60
38716;BME280;24833;49.324;8.694;2022-12-31T09:56:10;99833.13;;;15.20;92.48
38716;BME280;24833;49.324;8.694;2022-12-31T09:58:59;99836.34;;;15.29;92.96
38716;BME280;24833;49.324;8.694;2022-12-31T10:01:56;99830.53;;;15.32;92.18
38716;BME280;24833;49.324;8.694;2022-12-31T10:04:45;99829.59;;;15.38;92.56
38716;BME280;24833;49.324;8.694;2022-12-31T10:07:50;99827.88;;;15.43;92.71
38716;BME280;24833;49.324;8.694;2022-12-31T10:10:52;99818.66;;;15.51;92.98
38716;BME280;24833;49.324;8.694;2022-12-31T10:13:52;99817.75;;;15.57;92.33
38716;BME280;24833;49.324;8.694;2022-12-31T10:17:48;99815.00;;;15.64;91.33
38716;BME280;24833;49.324;8.694;2022-12-31T10:20:45;99815.91;;;15.76;93.05
38716;BME280;24833;49.324;8.694;2022-12-31T10:29:46;99816.34;;;16.03;90.95
38716;BME280;24833;49.324;8.694;2022-12-31T10:33:24;99816.84;;;16.12;92.04
38716;BME280;24833;49.324;8.694;2022-12-31T10:35:54;99828.94;;;16.21;89.41
38716;BME280;24833;49.324;8.694;2022-12-31T11:06:08;99810.47;;;16.83;87.96
38716;BME280;24833;49.324;8.694;2022-12-31T11:30:25;99809.72;;;17.23;86.49
38716;BME280;24833;49.324;8.694;2022-12-31T11:36:40;99815.09;;;17.34;85.78
38716;BME280;24833;49.324;8.694;2022-12-31T11:45:33;99794.97;;;17.54;87.11
38716;BME280;24833;49.324;8.694;2022-12-31T11:55:08;99788.47;;;17.66;85.47
38716;BME280;24833;49.324;8.694;2022-12-31T11:57:47;99782.56;;;17.69;85.40
38716;BME280;24833;49.324;8.694;2022-12-31T12:00:21;99783.16;;;17.72;85.21
38716;BME280;24833;49.324;8.694;2022-12-31T12:02:58;99789.41;;;17.72;84.94
38716;BME280;24833;49.324;8.694;2022-12-31T12:05:27;99775.41;;;17.75;85.12
38716;BME280;24833;49.324;8.694;2022-12-31T12:07:54;99783.13;;;17.83;87.24
38716;BME280;24833;49.324;8.694;2022-12-31T12:10:31;99779.59;;;17.83;84.24
38716;BME280;24833;49.324;8.694;2022-12-31T12:13:25;99772.06;;;17.85;83.33
38716;BME280;24833;49.324;8.694;2022-12-31T12:15:58;99772.66;;;17.87;84.78
38716;BME280;24833;49.324;8.694;2022-12-31T12:18:47;99765.94;;;17.89;85.06
38716;BME280;24833;49.324;8.694;2022-12-31T12:26:41;99764.63;;;17.92;82.84
38716;BME280;24833;49.324;8.694;2022-12-31T12:29:20;99756.75;;;17.90;82.48
38716;BME280;24833;49.324;8.694;2022-12-31T12:32:05;99756.59;;;17.97;84.98
38716;BME280;24833;49.324;8.694;2022-12-31T12:34:36;99767.16;;;17.98;84.50
38716;BME280;24833;49.324;8.694;2022-12-31T12:37:33;99759.75;;;18.06;86.10
38716;BME280;24833;49.324;8.694;2022-12-31T12:40:17;99754.09;;;18.07;84.78
38716;BME280;24833;49.324;8.694;2022-12-31T12:42:50;99767.69;;;18.12;83.50
38716;BME280;24833;49.324;8.694;2022-12-31T12:45:23;99749.09;;;18.16;82.37
38716;BME280;24833;49.324;8.694;2022-12-31T12:47:58;99754.75;;;18.14;81.86
38716;BME280;24833;49.324;8.694;2022-12-31T12:50:42;99762.44;;;18.22;85.01
38716;BME280;24833;49.324;8.694;2022-12-31T12:53:55;99764.59;;;18.20;81.47
38716;BME280;24833;49.324;8.694;2022-12-31T12:56:37;99763.00;;;18.24;83.48
38716;BME280;24833;49.324;8.694;2022-12-31T13:08:33;99756.44;;;18.37;81.54
38716;BME280;24833;49.324;8.694;2022-12-31T13:14:37;99753.84;;;18.42;83.99
38716;BME280;24833;49.324;8.694;2022-12-31T13:17:31;99747.59;;;18.42;83.36
38716;BME280;24833;49.324;8.694;2022-12-31T13:20:25;99730.22;;;18.38;82.00
38716;BME280;24833;49.324;8.694;2022-12-31T13:23:19;99743.19;;;18.36;82.43
38716;BME280;24833;49.324;8.694;2022-12-31T13:26:14;99737.78;;;18.36;81.79
38716;BME280;24833;49.324;8.694;2022-12-31T13:28:44;99743.75;;;18.38;83.13
38716;BME280;24833;49.324;8.694;2022-12-31T13:31:16;99739.41;;;18.37;81.40
38716;BME280;24833;49.324;8.694;2022-12-31T13:33:51;99735.31;;;18.34;82.16
38716;BME280;24833;49.324;8.694;2022-12-31T13:36:24;99730.16;;;18.33;82.78
38716;BME280;24833;49.324;8.694;2022-12-31T13:39:00;99729.56;;;18.31;82.26
38716;BME280;24833;49.324;8.694;2022-12-31T13:41:36;99730.09;;;18.28;81.83
38716;BME280;24833;49.324;8.694;2022-12-31T13:45:01;99725.66;;;18.21;80.55
38716;BME280;24833;49.324;8.694;2022-12-31T13:47:43;99728.53;;;18.15;79.80
38716;BME280;24833;49.324;8.694;2022-12-31T13:50:31;99725.00;;;18.14;81.19
38716;BME280;24833;49.324;8.694;2022-12-31T13:56:02;99721.91;;;18.06;80.53
38716;BME280;24833;49.324;8.694;2022-12-31T13:58:38;99722.94;;;18.05;80.08
38716;BME280;24833;49.324;8.694;2022-12-31T14:01:56;99722.63;;;18.01;81.13
38716;BME280;24833;49.324;8.694;2022-12-31T14:04:48;99714.44;;;17.96;81.21
38716;BME280;24833;49.324;8.694;2022-12-31T14:07:29;99713.88;;;17.94;81.05
38716;BME280;24833;49.324;8.694;2022-12-31T14:10:14;99719.28;;;17.94;82.93
38716;BME280;24833;49.324;8.694;2022-12-31T14:12:52;99713.22;;;17.87;80.57
38716;BME280;24833;49.324;8.694;2022-12-31T14:15:34;99713.22;;;17.87;83.29
38716;BME280;24833;49.324;8.694;2022-12-31T14:18:22;99712.88;;;17.83;83.04
38716;BME280;24833;49.324;8.694;2022-12-31T14:21:02;99713.38;;;17.80;82.11
38716;BME280;24833;49.324;8.694;2022-12-31T14:24:08;99713.59;;;17.79;82.80
38716;BME280;24833;49.324;8.694;2022-12-31T14:26:51;99714.34;;;17.74;81.36
38716;BME280;24833;49.324;8.694;2022-12-31T14:32:36;99722.00;;;17.65;81.29
38716;BME280;24833;49.324;8.694;2022-12-31T14:35:45;99720.34;;;17.64;83.65
38716;BME280;24833;49.324;8.694;2022-12-31T14:38:33;99720.03;;;17.61;83.15
38716;BME280;24833;49.324;8.694;2022-12-31T14:44:36;99719.84;;;17.51;81.43
38716;BME280;24833;49.324;8.694;2022-12-31T14:47:14;99727.63;;;17.47;81.66
38716;BME280;24833;49.324;8.694;2022-12-31T14:50:09;99734.53;;;17.43;80.42
38716;BME280;24833;49.324;8.694;2022-12-31T14:55:36;99739.84;;;17.38;81.97
38716;BME280;24833;49.324;8.694;2022-12-31T14:58:32;99740.44;;;17.40;83.13
38716;BME280;24833;49.324;8.694;2022-12-31T15:03:44;99743.50;;;17.32;82.16
38716;BME280;24833;49.324;8.694;2022-12-31T15:06:37;99734.59;;;17.31;83.34
38716;BME280;24833;49.324;8.694;2022-12-31T15:15:39;99739.44;;;17.17;82.15
38716;BME280;24833;49.324;8.694;2022-12-31T15:18:49;99739.00;;;17.09;79.75
38716;BME280;24833;49.324;8.694;2022-12-31T15:21:44;99744.41;;;17.09;82.70
38716;BME280;24833;49.324;8.694;2022-12-31T15:24:25;99735.13;;;17.05;82.81
38716;BME280;24833;49.324;8.694;2022-12-31T15:27:00;99741.25;;;17.00;81.96
38716;BME280;24833;49.324;8.694;2022-12-31T15:29:43;99741.41;;;16.94;81.09
38716;BME280;24833;49.324;8.694;2022-12-31T15:32:24;99742.91;;;16.89;81.04
38716;BME280;24833;49.324;8.694;2022-12-31T15:35:28;99748.00;;;16.86;81.11
38716;BME280;24833;49.324;8.694;2022-12-31T15:38:02;99747.38;;;16.84;81.17
38716;BME280;24833;49.324;8.694;2022-12-31T15:40:50;99740.84;;;16.80;81.28
38716;BME280;24833;49.324;8.694;2022-12-31T15:45:53;99764.75;;;16.76;81.75
38716;BME280;24833;49.324;8.694;2022-12-31T15:49:01;99767.94;;;16.73;81.09
38716;BME280;24833;49.324;8.694;2022-12-31T15:51:55;99772.97;;;16.70;81.16
38716;BME280;24833;49.324;8.694;2022-12-31T15:57:33;99775.50;;;16.65;81.39
38716;BME280;24833;49.324;8.694;2022-12-31T16:00:42;99773.06;;;16.63;81.15
38716;BME280;24833;49.324;8.694;2022-12-31T16:03:23;99782.78;;;16.64;80.84
38716;BME280;24833;49.324;8.694;2022-12-31T16:05:57;99782.19;;;16.62;81.67
38716;BME280;24833;49.324;8.694;2022-12-31T16:08:30;99785.97;;;16.61;81.41
38716;BME280;24833;49.324;8.694;2022-12-31T16:10:58;99779.75;;;16.60;81.55
38716;BME280;24833;49.324;8.694;2022-12-31T16:13:26;99780.19;;;16.57;81.59
38716;BME280;24833;49.324;8.694;2022-12-31T16:16:15;99780.19;;;16.57;81.74
38716;BME280;24833;49.324;8.694;2022-12-31T16:18:45;99780.69;;;16.54;81.67
38716;BME280;24833;49.324;8.694;2022-12-31T16:21:35;99778.22;;;16.53;82.06
38716;BME280;24833;49.324;8.694;2022-12-31T16:24:24;99783.00;;;16.51;81.62
38716;BME280;24833;49.324;8.694;2022-12-31T16:26:55;99795.09;;;16.48;81.47
38716;BME280;24833;49.324;8.694;2022-12-31T16:29:23;99801.53;;;16.47;81.59
38716;BME280;24833;49.324;8.694;2022-12-31T16:31:52;99797.41;;;16.45;81.34
38716;BME280;24833;49.324;8.694;2022-12-31T16:34:23;99801.41;;;16.42;81.63
38716;BME280;24833;49.324;8.694;2022-12-31T16:36:59;99809.75;;;16.41;81.51
38716;BME280;24833;49.324;8.694;2022-12-31T16:39:35;99812.69;;;16.39;82.11
38716;BME280;24833;49.324;8.694;2022-12-31T16:42:17;99813.72;;;16.38;81.81
38716;BME280;24833;49.324;8.694;2022-12-31T16:44:47;99812.88;;;16.38;82.32
38716;BME280;24833;49.324;8.694;2022-12-31T16:47:28;99818.75;;;16.34;82.49
38716;BME280;24833;49.324;8.694;2022-12-31T16:50:13;99817.94;;;16.34;82.43
38716;BME280;24833;49.324;8.694;2022-12-31T16:52:44;99816.50;;;16.31;81.72
38716;BME280;24833;49.324;8.694;2022-12-31T16:55:19;99813.00;;;16.31;81.31